Time;durP1;ratioP1;P1;durP2;ratioP2;P2;SDS_P1;SDS_P2;PMS_P1;PMS_P2;Temp;Humidity;BMP_temperature;BMP_pressure;BME280_temperature;BME280_humidity;BME280_pressure;Samples;Min_cycle;Max_cycle;Signal;HPM_P1;HPM_P2
2023/04/12 00:02:15;;;;;;;6.45;2.03;;;;;;;6.77;86.04;96733.66;5025870;28;20124;-60
2023/04/12 00:04:42;;;;;;;6.32;2.10;;;;;;;6.83;87.84;96735.41;5020887;28;20732;-61
2023/04/12 00:07:09;;;;;;;6.93;2.17;;;;;;;6.86;91.57;96732.19;5020343;28;20052;-60
2023/04/12 00:09:36;;;;;;;6.75;2.45;;;;;;;6.64;90.62;96722.16;5022897;28;20517;-60
2023/04/12 00:12:03;;;;;;;4.65;1.90;;;;;;;6.62;94.84;96726.97;5017579;28;20060;-60
2023/04/12 00:14:30;;;;;;;7.93;2.72;;;;;;;6.69;96.88;96724.13;5020377;28;20512;-61
2023/04/12 00:16:56;;;;;;;4.57;1.98;;;;;;;6.68;98.06;96727.06;5022642;28;20099;-61
2023/04/12 00:19:24;;;;;;;5.97;2.17;;;;;;;6.58;100.00;96719.63;5015808;28;20044;-58
2023/04/12 00:21:51;;;;;;;5.50;2.35;;;;;;;6.38;100.00;96716.31;5019642;28;20052;-60
2023/04/12 00:24:18;;;;;;;8.52;2.72;;;;;;;6.32;100.00;96709.22;5024490;28;20673;-59
2023/04/12 00:26:44;;;;;;;11.35;3.00;;;;;;;6.44;100.00;96713.72;5025567;28;20076;-61
2023/04/12 00:29:11;;;;;;;8.48;1.90;;;;;;;6.43;100.00;96707.53;5020199;28;20041;-61
2023/04/12 00:31:37;;;;;;;5.20;1.90;;;;;;;6.45;100.00;96702.72;5023986;28;20038;-60
2023/04/12 00:34:04;;;;;;;5.03;1.88;;;;;;;6.50;100.00;96702.81;5021183;28;20056;-61
2023/04/12 00:36:31;;;;;;;8.30;2.33;;;;;;;6.42;100.00;96697.84;5014557;28;20095;-60
2023/04/12 00:38:57;;;;;;;4.80;1.83;;;;;;;6.50;100.00;96694.75;5019175;28;20088;-60
2023/04/12 00:41:26;;;;;;;9.55;2.17;;;;;;;6.50;100.00;96693.94;5020725;28;20674;-61
2023/04/12 00:43:52;;;;;;;7.10;1.85;;;;;;;6.44;100.00;96687.66;5017726;28;20037;-60
2023/04/12 00:46:19;;;;;;;6.50;1.75;;;;;;;6.37;100.00;96687.81;5020437;28;20064;-60
2023/04/12 00:48:47;;;;;;;6.32;2.03;;;;;;;6.27;100.00;96684.94;5025200;28;20521;-60
2023/04/12 00:51:16;;;;;;;6.10;1.90;;;;;;;6.23;100.00;96681.09;5021454;28;20041;-61
2023/04/12 00:53:43;;;;;;;4.72;1.90;;;;;;;6.23;100.00;96678.41;5021445;28;20045;-60
2023/04/12 00:56:10;;;;;;;6.65;1.75;;;;;;;6.14;100.00;96675.28;5019220;28;20080;-60
2023/04/12 00:58:37;;;;;;;5.80;2.38;;;;;;;6.14;100.00;96672.59;5026095;28;20051;-60
2023/04/12 01:01:04;;;;;;;8.32;2.08;;;;;;;6.14;100.00;96666.41;5019675;28;20056;-61
2023/04/12 01:03:31;;;;;;;5.80;1.88;;;;;;;6.03;100.00;96666.22;5018413;28;20064;-59
2023/04/12 01:06:28;;;;;;;6.95;1.77;;;;;;;6.04;100.00;96665.16;5017647;28;20132;-60
2023/04/12 01:09:29;;;;;;;8.50;2.38;;;;;;;6.09;100.00;96659.88;5012633;28;20100;-60
2023/04/12 01:12:08;;;;;;;3.90;2.03;;;;;;;5.94;100.00;96665.75;5019335;28;20437;-60
2023/04/12 01:14:57;;;;;;;5.65;2.05;;;;;;;5.90;100.00;96672.66;5017532;28;20072;-60
2023/04/12 01:17:30;;;;;;;5.00;1.67;;;;;;;5.90;100.00;96666.47;5015012;28;20045;-60
2023/04/12 01:20:21;;;;;;;6.90;1.88;;;;;;;5.85;100.00;96665.31;5021553;28;20158;-61
2023/04/12 01:22:58;;;;;;;;;;;;;;;5.88;100.00;96655.97;5021224;28;20144;-59
2023/04/12 01:25:42;;;;;;;5.82;2.08;;;;;;;6.07;100.00;96651.25;5022928;28;19931;-60
2023/04/12 01:28:13;;;;;;;9.48;2.17;;;;;;;6.14;100.00;96650.28;5019395;28;20096;-60
2023/04/12 01:30:42;;;;;;;6.80;2.08;;;;;;;6.16;100.00;96640.91;5022981;28;20057;-60
2023/04/12 01:33:10;;;;;;;5.53;1.92;;;;;;;6.09;100.00;96635.69;5019951;28;20044;-59
2023/04/12 01:35:39;;;;;;;6.93;2.15;;;;;;;6.15;100.00;96625.84;5021591;28;20048;-59
2023/04/12 01:38:07;;;;;;;7.78;2.30;;;;;;;6.10;100.00;96615.00;5024441;28;20625;-60
2023/04/12 01:40:36;;;;;;;5.88;1.90;;;;;;;6.12;100.00;96612.91;5015617;28;20121;-60
2023/04/12 01:43:14;;;;;;;7.05;1.88;;;;;;;5.86;100.00;96605.16;5024223;28;20037;-60
2023/04/12 01:45:41;;;;;;;5.10;1.67;;;;;;;5.83;100.00;96599.47;5022623;28;20041;-58
2023/04/12 01:48:09;;;;;;;4.18;1.67;;;;;;;5.82;100.00;96595.16;5021322;28;20041;-60
2023/04/12 01:50:49;;;;;;;4.63;1.80;;;;;;;5.83;100.00;96602.94;5025363;28;20033;-60
2023/04/12 01:53:31;;;;;;;8.82;2.10;;;;;;;5.97;100.00;96591.91;5027579;28;20038;-60
2023/04/12 01:56:06;;;;;;;5.65;1.95;;;;;;;6.08;100.00;96592.94;5020676;28;20037;-58
2023/04/12 01:58:33;;;;;;;8.13;1.80;;;;;;;5.98;100.00;96585.47;5017712;28;20497;-60
2023/04/12 02:01:01;;;;;;;6.80;1.90;;;;;;;6.08;100.00;96584.88;5019250;28;20049;-60
2023/04/12 02:03:30;;;;;;;6.32;2.10;;;;;;;6.04;100.00;96575.66;5022712;28;20041;-60
2023/04/12 02:05:58;;;;;;;9.63;1.98;;;;;;;6.07;100.00;96569.78;5018867;28;20056;-59
2023/04/12 02:08:25;;;;;;;7.65;1.90;;;;;;;6.00;100.00;96564.53;5026864;28;22789;-59
2023/04/12 02:10:51;;;;;;;7.60;2.03;;;;;;;6.08;100.00;96566.88;5020456;28;20140;-60
2023/04/12 02:13:18;;;;;;;4.10;2.10;;;;;;;6.11;100.00;96558.31;5021992;28;20045;-60
2023/04/12 02:15:44;;;;;;;5.00;2.10;;;;;;;6.00;100.00;96553.78;5021722;28;20041;-60
2023/04/12 02:18:12;;;;;;;6.57;2.10;;;;;;;6.09;100.00;96548.88;5024361;28;20123;-60
2023/04/12 02:20:40;;;;;;;4.82;1.77;;;;;;;6.07;100.00;96543.75;5017415;28;20037;-60
2023/04/12 02:23:06;;;;;;;4.60;1.70;;;;;;;6.12;100.00;96548.41;5019948;28;20033;-60
2023/04/12 02:25:34;;;;;;;5.38;1.90;;;;;;;6.01;100.00;96541.97;5023425;28;20038;-60
2023/04/12 02:28:02;;;;;;;5.75;2.28;;;;;;;6.02;100.00;96530.19;5019557;28;20067;-61
2023/04/12 02:30:28;;;;;;;4.45;1.77;;;;;;;5.95;100.00;96532.22;5020232;28;20076;-60
2023/04/12 02:32:56;;;;;;;4.97;1.70;;;;;;;6.03;100.00;96525.63;5019805;28;20042;-60
2023/04/12 02:35:30;;;;;;;5.95;1.92;;;;;;;5.95;100.00;96518.78;5021462;28;20034;-60
2023/04/12 02:38:07;;;;;;;6.53;2.58;;;;;;;5.97;100.00;96522.84;5017045;28;20041;-61
2023/04/12 02:40:42;;;;;;;6.57;2.35;;;;;;;5.87;100.00;96514.63;5022305;28;20038;-60
2023/04/12 02:43:13;;;;;;;6.97;2.30;;;;;;;5.94;100.00;96514.47;5021517;28;20049;-60
2023/04/12 02:45:43;;;;;;;6.35;2.20;;;;;;;5.91;100.00;96506.88;5021392;28;20132;-59
2023/04/12 02:48:10;;;;;;;7.90;2.50;;;;;;;5.84;100.00;96502.50;5018952;28;20037;-60
2023/04/12 02:50:37;;;;;;;8.93;2.38;;;;;;;5.90;100.00;96506.06;5021108;28;20065;-60
2023/04/12 02:53:11;;;;;;;7.72;2.67;;;;;;;5.90;100.00;96495.31;5021371;28;20042;-59
2023/04/12 02:55:40;;;;;;;6.43;2.72;;;;;;;5.91;100.00;96493.47;5016877;28;20141;-60
2023/04/12 02:58:08;;;;;;;5.03;2.47;;;;;;;5.96;100.00;96478.22;5019173;28;20061;-60
2023/04/12 03:00:42;;;;;;;6.20;2.80;;;;;;;6.03;100.00;96477.25;5024578;28;20099;-60
2023/04/12 03:03:11;;;;;;;5.80;2.63;;;;;;;6.11;100.00;96464.25;5020090;28;20111;-60
2023/04/12 03:05:38;;;;;;;7.45;3.13;;;;;;;6.10;100.00;96468.00;5021122;28;20095;-60
2023/04/12 03:08:05;;;;;;;6.45;2.67;;;;;;;6.13;100.00;96463.19;5020836;28;20050;-60
2023/04/12 03:10:37;;;;;;;8.63;2.58;;;;;;;6.10;100.00;96451.88;5023624;28;20033;-60
2023/04/12 03:13:04;;;;;;;9.90;2.75;;;;;;;6.06;100.00;96453.44;5018127;28;20049;-60
2023/04/12 03:15:34;;;;;;;7.38;2.55;;;;;;;5.96;100.00;96446.00;5024578;28;20037;-60
2023/04/12 03:18:01;;;;;;;6.90;2.90;;;;;;;6.02;100.00;96446.06;5018400;28;20045;-59
2023/04/12 03:20:32;;;;;;;5.78;2.35;;;;;;;5.91;100.00;96443.22;5024097;28;20091;-60
2023/04/12 03:23:05;;;;;;;7.03;2.67;;;;;;;5.94;100.00;96433.88;5017871;28;20049;-60
2023/04/12 03:25:36;;;;;;;7.10;2.60;;;;;;;6.03;100.00;96431.56;5018929;28;20096;-60
2023/04/12 03:28:22;;;;;;;6.80;2.60;;;;;;;6.07;100.00;96427.34;5031230;28;20041;-60
2023/04/12 03:30:51;;;;;;;8.00;3.10;;;;;;;6.16;100.00;96425.06;5033287;28;20065;-60
2023/04/12 03:33:20;;;;;;;8.05;2.85;;;;;;;6.17;100.00;96419.44;5023622;28;20049;-60
2023/04/12 03:35:48;;;;;;;6.63;2.97;;;;;;;6.20;100.00;96415.44;5018189;28;20590;-60
2023/04/12 03:38:15;;;;;;;5.65;2.60;;;;;;;6.19;100.00;96409.25;5021019;28;20061;-59
2023/04/12 03:40:42;;;;;;;8.60;2.90;;;;;;;6.07;100.00;96409.38;5024962;28;20591;-60
2023/04/12 03:43:09;;;;;;;6.45;2.53;;;;;;;5.98;100.00;96410.81;5018932;28;20045;-60
2023/04/12 03:45:35;;;;;;;6.78;2.53;;;;;;;6.04;100.00;96406.38;5021589;28;20440;-59
2023/04/12 03:48:03;;;;;;;6.65;2.83;;;;;;;6.11;100.00;96397.06;5019735;28;20045;-60
2023/04/12 03:50:43;;;;;;;7.07;2.75;;;;;;;6.06;100.00;96397.00;5016030;28;20038;-61
2023/04/12 03:53:15;;;;;;;5.55;2.20;;;;;;;5.96;100.00;96384.19;5018802;28;20071;-60
2023/04/12 03:55:44;;;;;;;6.30;2.38;;;;;;;5.95;100.00;96379.06;5020299;28;20055;-58
2023/04/12 03:58:12;;;;;;;6.82;2.30;;;;;;;6.01;100.00;96374.56;5021047;28;20037;-60
2023/04/12 04:00:43;;;;;;;5.33;2.40;;;;;;;6.04;100.00;96368.75;5017309;28;20120;-60
2023/04/12 04:03:11;;;;;;;4.00;2.10;;;;;;;6.08;100.00;96370.66;5019108;28;20057;-60
2023/04/12 04:05:44;;;;;;;5.03;2.00;;;;;;;6.09;100.00;96363.44;5020313;28;20061;-60
2023/04/12 04:08:12;;;;;;;5.50;1.65;;;;;;;6.11;100.00;96361.28;5017732;28;20543;-60
2023/04/12 04:10:49;;;;;;;4.05;1.80;;;;;;;6.11;100.00;96356.75;5017424;28;20048;-60
2023/04/12 04:13:16;;;;;;;5.57;2.03;;;;;;;6.17;100.00;96359.50;5023732;28;20064;-60
2023/04/12 04:15:43;;;;;;;3.47;1.80;;;;;;;6.17;100.00;96351.44;5024824;28;20080;-60
2023/04/12 04:18:10;;;;;;;4.03;1.77;;;;;;;6.10;100.00;96349.75;5024389;28;20128;-61
2023/04/12 04:20:37;;;;;;;5.10;1.80;;;;;;;6.05;100.00;96341.59;5026776;28;20045;-60
2023/04/12 04:23:03;;;;;;;7.72;2.78;;;;;;;6.10;100.00;96341.69;5022161;28;20045;-60
2023/04/12 04:25:30;;;;;;;6.00;2.17;;;;;;;6.18;100.00;96331.53;5022829;28;20123;-59
2023/04/12 04:28:01;;;;;;;6.18;2.72;;;;;;;6.19;100.00;96327.81;5018645;28;20037;-60
2023/04/12 04:30:29;;;;;;;5.40;1.80;;;;;;;6.21;100.00;96328.38;5018695;28;20045;-60
2023/04/12 04:32:55;;;;;;;5.95;2.05;;;;;;;6.19;100.00;96322.44;5025922;28;20049;-61
2023/04/12 04:35:24;;;;;;;6.22;2.45;;;;;;;5.98;100.00;96320.25;5026594;28;20061;-59
2023/04/12 04:38:14;;;;;;;4.47;1.90;;;;;;;6.03;100.00;96307.94;5025012;28;20660;-59
2023/04/12 04:40:42;;;;;;;4.60;1.65;;;;;;;5.97;100.00;96323.22;5033410;28;20036;-59
2023/04/12 04:43:32;;;;;;;4.63;2.08;;;;;;;5.99;100.00;96318.38;5013273;28;20053;-60
2023/04/12 04:46:01;;;;;;;6.43;2.20;;;;;;;5.91;100.00;96313.44;5019571;28;20096;-58
2023/04/12 04:48:28;;;;;;;5.40;1.88;;;;;;;5.97;100.00;96307.09;5024223;28;20110;-60
2023/04/12 04:50:55;;;;;;;6.32;2.10;;;;;;;5.90;100.00;96314.50;5021428;28;20037;-60
2023/04/12 04:53:22;;;;;;;5.43;2.25;;;;;;;5.86;100.00;96314.16;5019451;28;20045;-60
2023/04/12 04:55:56;;;;;;;6.25;2.33;;;;;;;5.85;100.00;96309.88;5015922;28;20100;-59
2023/04/12 04:58:25;;;;;;;4.30;2.00;;;;;;;5.93;100.00;96303.28;5014108;28;20133;-60
2023/04/12 05:00:56;;;;;;;6.70;2.25;;;;;;;5.94;100.00;96299.50;5025125;28;20045;-60
2023/04/12 05:03:27;;;;;;;4.55;1.73;;;;;;;5.97;100.00;96301.72;5021236;28;20053;-60
2023/04/12 05:05:56;;;;;;;6.45;2.33;;;;;;;6.04;100.00;96298.88;5023937;28;20734;-60
2023/04/12 05:08:23;;;;;;;4.80;1.63;;;;;;;6.08;100.00;96297.31;5014368;28;20136;-60
2023/04/12 05:10:51;;;;;;;5.05;1.95;;;;;;;6.09;100.00;96285.50;5026513;28;20065;-59
2023/04/12 05:13:21;;;;;;;5.68;1.88;;;;;;;6.13;100.00;96289.31;5013156;28;20180;-60
2023/04/12 05:15:48;;;;;;;5.75;1.83;;;;;;;6.02;100.00;96279.44;5022494;28;20049;-60
2023/04/12 05:18:14;;;;;;;5.57;1.90;;;;;;;6.10;100.00;96279.06;5021734;28;20482;-60
2023/04/12 05:20:41;;;;;;;3.88;1.90;;;;;;;6.09;100.00;96280.91;5017280;28;20501;-60
2023/04/12 05:23:07;;;;;;;5.47;1.60;;;;;;;6.09;100.00;96275.53;5017930;28;20053;-60
2023/04/12 05:25:34;;;;;;;3.30;1.60;;;;;;;6.18;100.00;96273.25;5028544;28;20045;-60
2023/04/12 05:28:06;;;;;;;3.45;1.45;;;;;;;6.16;100.00;96259.22;5022576;28;20072;-60
2023/04/12 05:30:32;;;;;;;3.97;1.60;;;;;;;6.08;100.00;96263.16;5036878;28;20690;-60
2023/04/12 05:33:00;;;;;;;3.58;1.73;;;;;;;6.03;100.00;96252.38;5021671;28;20049;-60
2023/04/12 05:35:26;;;;;;;4.45;1.83;;;;;;;6.07;100.00;96253.50;5024988;28;20072;-60
2023/04/12 05:37:57;;;;;;;6.20;2.37;;;;;;;6.13;100.00;96254.38;5019928;28;20045;-60
2023/04/12 05:40:24;;;;;;;2.90;1.52;;;;;;;6.21;100.00;96253.94;5031621;28;20056;-60
2023/04/12 05:42:52;;;;;;;6.20;1.90;;;;;;;6.17;100.00;96254.66;5026902;28;20046;-60
2023/04/12 05:45:19;;;;;;;5.85;1.90;;;;;;;6.19;100.00;96239.13;5036860;28;20093;-60
2023/04/12 05:47:46;;;;;;;6.20;1.80;;;;;;;6.23;100.00;96235.66;5019154;28;20045;-59
2023/04/12 05:50:12;;;;;;;7.18;2.03;;;;;;;6.31;100.00;96242.47;5021730;28;20041;-59
2023/04/12 05:52:39;;;;;;;7.30;2.17;;;;;;;6.32;100.00;96227.16;5030000;28;20056;-60
2023/04/12 05:55:07;;;;;;;3.35;1.75;;;;;;;6.38;100.00;96226.16;5027568;28;20056;-60
2023/04/12 05:57:37;;;;;;;4.10;1.77;;;;;;;6.37;100.00;96217.25;5014772;28;20509;-60
2023/04/12 06:00:09;;;;;;;5.78;2.20;;;;;;;6.43;100.00;96210.06;5021439;28;20467;-60
2023/04/12 06:02:39;;;;;;;3.47;1.52;;;;;;;6.41;100.00;96209.50;5017375;28;20045;-60
2023/04/12 06:05:06;;;;;;;4.22;2.15;;;;;;;6.32;100.00;96206.47;5028521;28;20042;-58
2023/04/12 06:07:33;;;;;;;4.53;2.13;;;;;;;6.27;100.00;96201.03;5025039;28;20072;-59
2023/04/12 06:10:00;;;;;;;3.90;1.67;;;;;;;6.24;100.00;96199.63;5029362;28;20045;-58
2023/04/12 06:12:26;;;;;;;6.35;2.38;;;;;;;6.34;100.00;96193.56;5023347;28;20115;-60
2023/04/12 06:14:54;;;;;;;4.55;1.60;;;;;;;6.38;100.00;96189.31;5022660;28;20049;-60
2023/04/12 06:17:21;;;;;;;6.75;2.25;;;;;;;6.38;100.00;96189.31;5026744;28;20041;-60
2023/04/12 06:19:48;;;;;;;5.22;2.40;;;;;;;6.55;100.00;96187.56;5021203;28;20635;-60
2023/04/12 06:22:14;;;;;;;6.68;2.10;;;;;;;6.69;100.00;96178.03;5024326;28;20477;-60
2023/04/12 06:24:41;;;;;;;4.85;2.03;;;;;;;6.60;100.00;96174.97;5023469;28;20106;-60
2023/04/12 06:27:09;;;;;;;5.18;1.70;;;;;;;6.72;100.00;96172.13;5017920;28;20042;-59
2023/04/12 06:29:36;;;;;;;4.93;1.92;;;;;;;6.60;100.00;96155.34;5019727;28;20041;-59
2023/04/12 06:32:03;;;;;;;4.43;2.10;;;;;;;6.66;100.00;96158.91;5029581;28;20050;-59
2023/04/12 06:34:30;;;;;;;4.57;2.30;;;;;;;6.82;100.00;96152.53;5020032;28;20120;-59
2023/04/12 06:37:02;;;;;;;3.35;1.85;;;;;;;6.95;100.00;96153.19;5040008;28;20779;-60
2023/04/12 06:39:29;;;;;;;6.57;1.88;;;;;;;7.11;100.00;96148.72;5030507;28;20114;-60
2023/04/12 06:41:56;;;;;;;12.82;2.40;;;;;;;7.00;100.00;96139.75;5026088;28;20065;-60
2023/04/12 06:44:22;;;;;;;4.82;1.90;;;;;;;7.09;100.00;96132.00;5020307;28;20068;-61
2023/04/12 06:46:49;;;;;;;6.55;2.30;;;;;;;7.13;100.00;96123.16;5018737;28;20144;-57
2023/04/12 06:49:16;;;;;;;4.18;1.40;;;;;;;7.18;100.00;96124.25;5020630;28;20176;-60
2023/04/12 06:51:43;;;;;;;4.82;2.33;;;;;;;7.21;100.00;96119.16;5030727;28;20646;-60
2023/04/12 06:54:10;;;;;;;3.88;1.98;;;;;;;7.26;100.00;96113.00;5019822;28;20053;-60
2023/04/12 06:56:37;;;;;;;4.03;1.50;;;;;;;7.08;100.00;96100.78;5018398;28;20130;-59
2023/04/12 06:59:03;;;;;;;4.80;1.90;;;;;;;7.11;100.00;96097.59;5027366;28;20037;-60
2023/04/12 07:01:29;;;;;;;3.40;1.65;;;;;;;7.14;100.00;96092.47;5028108;28;20761;-60
2023/04/12 07:03:56;;;;;;;5.55;1.98;;;;;;;7.10;100.00;96087.88;5027162;28;20124;-60
2023/04/12 07:06:23;;;;;;;4.38;1.88;;;;;;;7.46;100.00;96092.59;5026865;28;20568;-60
2023/04/12 07:08:52;;;;;;;5.10;1.80;;;;;;;7.35;100.00;96081.81;5021934;28;20621;-60
2023/04/12 07:11:21;;;;;;;2.95;1.40;;;;;;;7.32;100.00;96078.81;5024514;28;20788;-60
2023/04/12 07:13:49;;;;;;;3.50;1.63;;;;;;;7.31;100.00;96079.88;5023281;28;20785;-60
2023/04/12 07:16:16;;;;;;;5.07;1.75;;;;;;;7.50;100.00;96067.59;5027639;28;20049;-59
2023/04/12 07:18:43;;;;;;;4.97;1.92;;;;;;;7.54;100.00;96065.97;5030022;28;20042;-59
2023/04/12 07:21:13;;;;;;;5.22;1.75;;;;;;;7.44;100.00;96054.38;5024257;28;20128;-60
2023/04/12 07:23:39;;;;;;;4.97;2.83;;;;;;;7.32;100.00;96043.81;5014409;28;20427;-59
2023/04/12 07:26:06;;;;;;;3.55;1.80;;;;;;;7.54;100.00;96036.34;5023880;28;20127;-60
2023/04/12 07:28:34;;;;;;;6.80;2.10;;;;;;;7.77;100.00;96038.81;5025824;28;20041;-51
2023/04/12 07:31:04;;;;;;;3.75;1.70;;;;;;;7.66;100.00;96022.63;5009872;28;20042;-53
2023/04/12 07:33:31;;;;;;;5.38;1.83;;;;;;;7.80;100.00;96011.34;5026593;28;20095;-53
2023/04/12 07:35:59;;;;;;;4.25;1.67;;;;;;;7.72;100.00;96009.16;5025814;28;20049;-54
2023/04/12 07:38:26;;;;;;;4.97;1.85;;;;;;;8.23;100.00;96002.19;5024675;28;20103;-50
2023/04/12 07:40:53;;;;;;;5.30;1.75;;;;;;;8.27;100.00;95993.31;5022064;28;20496;-56
2023/04/12 07:43:20;;;;;;;4.15;1.75;;;;;;;8.29;100.00;95993.81;5020972;28;20557;-56
2023/04/12 07:45:47;;;;;;;4.70;1.60;;;;;;;7.94;100.00;95981.97;5026212;28;20042;-52
2023/04/12 07:48:14;;;;;;;4.85;1.70;;;;;;;7.93;100.00;95983.06;5028279;28;20053;-50
2023/04/12 07:50:40;;;;;;;3.22;1.27;;;;;;;7.93;100.00;95978.47;5027882;28;20040;-51
2023/04/12 07:53:25;;;;;;;3.40;1.55;;;;;;;8.11;100.00;95972.81;5020836;28;20080;-55
2023/04/12 07:55:52;;;;;;;3.35;1.40;;;;;;;8.13;100.00;95976.84;5022804;28;20049;-54
2023/04/12 07:58:21;;;;;;;4.95;1.40;;;;;;;8.23;100.00;95976.03;5023850;28;20107;-51
2023/04/12 08:00:48;;;;;;;3.38;1.67;;;;;;;8.24;100.00;95966.06;5025805;28;20080;-52
2023/04/12 08:03:16;;;;;;;4.18;1.77;;;;;;;8.32;100.00;95969.03;5020745;28;20539;-52
2023/04/12 08:05:43;;;;;;;4.28;2.45;;;;;;;8.50;100.00;95966.00;5025438;28;20080;-55
2023/04/12 08:08:10;;;;;;;4.05;1.60;;;;;;;8.76;100.00;95963.25;5027115;28;20084;-60
2023/04/12 08:10:38;;;;;;;5.28;2.00;;;;;;;8.40;100.00;95959.56;5026728;28;20128;-59
2023/04/12 08:13:05;;;;;;;4.95;1.92;;;;;;;8.23;100.00;95961.75;5029415;28;20053;-60
2023/04/12 08:15:32;;;;;;;6.22;1.52;;;;;;;8.08;100.00;95949.91;5025627;28;20099;-61
2023/04/12 08:18:01;;;;;;;3.17;1.40;;;;;;;8.16;100.00;95953.94;5029020;28;20443;-60
2023/04/12 08:20:28;;;;;;;2.90;1.30;;;;;;;7.91;100.00;95956.38;5029938;28;20041;-60
2023/04/12 08:22:55;;;;;;;6.95;2.00;;;;;;;7.92;100.00;95960.69;5025036;28;20556;-59
2023/04/12 08:25:21;;;;;;;4.35;1.75;;;;;;;7.96;100.00;95955.56;5019674;28;20091;-61
2023/04/12 08:27:49;;;;;;;6.68;2.47;;;;;;;8.07;100.00;95967.13;5022139;28;20045;-63
2023/04/12 08:30:17;;;;;;;6.95;2.10;;;;;;;8.01;100.00;95976.31;5019690;28;20068;-61
2023/04/12 08:32:43;;;;;;;6.78;2.00;;;;;;;8.15;100.00;95963.91;5020142;28;20045;-59
2023/04/12 08:35:10;;;;;;;4.45;1.90;;;;;;;8.09;100.00;95969.56;5024132;28;20303;-61
2023/04/12 08:37:37;;;;;;;6.35;1.95;;;;;;;8.26;100.00;95972.00;5018566;28;20132;-60
2023/04/12 08:40:06;;;;;;;4.90;2.00;;;;;;;8.24;100.00;95969.56;5026684;28;20489;-61
2023/04/12 08:42:36;;;;;;;5.45;2.10;;;;;;;8.33;100.00;95969.81;5026600;28;20026;-64
2023/04/12 08:45:05;;;;;;;7.00;2.25;;;;;;;8.48;100.00;95966.31;5016479;28;20077;-63
2023/04/12 08:47:33;;;;;;;5.20;2.30;;;;;;;8.61;100.00;95964.13;5027200;28;20120;-61
2023/04/12 08:50:07;;;;;;;5.18;1.67;;;;;;;8.63;100.00;95962.78;5016289;28;20464;-58
2023/04/12 08:52:35;;;;;;;6.55;2.42;;;;;;;8.62;100.00;95963.84;5027204;28;20045;-60
2023/04/12 08:55:03;;;;;;;5.82;2.20;;;;;;;8.88;100.00;95962.97;5021677;28;20049;-60
2023/04/12 08:57:31;;;;;;;5.45;1.90;;;;;;;8.85;100.00;95946.22;5022914;28;20092;-60
2023/04/12 08:59:59;;;;;;;4.68;1.85;;;;;;;8.86;100.00;95944.34;5023829;28;20192;-58
2023/04/12 09:02:25;;;;;;;4.22;1.88;;;;;;;9.06;100.00;95937.22;5029756;28;20037;-59
2023/04/12 09:04:53;;;;;;;5.22;2.17;;;;;;;8.89;100.00;95938.41;5028708;28;20049;-59
2023/04/12 09:07:22;;;;;;;5.38;2.30;;;;;;;9.04;100.00;95934.84;5018336;28;20124;-60
2023/04/12 09:09:49;;;;;;;3.55;1.98;;;;;;;9.26;100.00;95930.94;5023462;28;20048;-60
2023/04/12 09:12:18;;;;;;;5.95;2.05;;;;;;;9.10;100.00;95930.19;5024818;28;20095;-59
2023/04/12 09:14:45;;;;;;;4.90;1.90;;;;;;;9.19;100.00;95925.03;5024405;28;20042;-60
2023/04/12 09:17:25;;;;;;;6.82;2.40;;;;;;;9.17;100.00;95927.19;5026932;28;20037;-60
2023/04/12 09:19:54;;;;;;;5.13;1.70;;;;;;;9.27;100.00;95927.16;5027470;28;20056;-62
2023/04/12 09:22:33;;;;;;;4.63;2.00;;;;;;;9.35;100.00;95921.16;5014673;28;20107;-60
2023/04/12 09:25:00;;;;;;;5.97;1.88;;;;;;;9.37;100.00;95923.56;5016189;28;20041;-60
2023/04/12 09:27:28;;;;;;;7.03;2.00;;;;;;;9.68;100.00;95931.47;5022773;28;20045;-60
2023/04/12 09:30:08;;;;;;;5.10;1.70;;;;;;;9.60;100.00;95922.06;5018630;28;20045;-58
2023/04/12 09:32:35;;;;;;;5.82;2.30;;;;;;;9.65;100.00;95920.44;5024615;28;20041;-58
2023/04/12 09:35:04;;;;;;;4.63;2.00;;;;;;;9.85;100.00;95919.44;5021799;28;20081;-59
2023/04/12 09:37:30;;;;;;;3.05;1.38;;;;;;;9.81;100.00;95913.00;5030276;28;20740;-59
2023/04/12 09:40:08;;;;;;;5.95;1.98;;;;;;;9.74;100.00;95913.31;5027498;28;20045;-60
2023/04/12 09:42:47;;;;;;;4.55;1.88;;;;;;;9.65;100.00;95910.41;5021721;28;20048;-60
2023/04/12 09:45:25;;;;;;;5.60;1.60;;;;;;;9.64;100.00;95900.69;5032882;28;20667;-60
2023/04/12 09:47:53;;;;;;;3.92;1.52;;;;;;;9.70;100.00;95891.44;5040070;28;20435;-59
2023/04/12 09:50:27;;;;;;;4.70;1.60;;;;;;;9.69;100.00;95908.75;5025732;28;20045;-59
2023/04/12 09:52:55;;;;;;;7.60;2.30;;;;;;;9.80;100.00;95905.97;5031471;28;20160;-59
2023/04/12 09:55:24;;;;;;;4.90;1.80;;;;;;;9.67;100.00;95902.84;5031598;28;20047;-60
2023/04/12 09:57:51;;;;;;;4.85;1.75;;;;;;;9.67;100.00;95902.00;5022967;28;20730;-61
2023/04/12 10:00:21;;;;;;;6.13;1.77;;;;;;;9.83;100.00;95905.41;5031036;28;20043;-59
2023/04/12 10:02:50;;;;;;;4.28;1.85;;;;;;;9.97;100.00;95887.44;5025654;28;20057;-60
2023/04/12 10:05:19;;;;;;;3.65;1.40;;;;;;;10.07;100.00;95902.78;5022081;28;20052;-63
2023/04/12 10:07:47;;;;;;;4.75;1.52;;;;;;;9.87;100.00;95891.03;5022579;28;20072;-59
2023/04/12 10:10:15;;;;;;;4.03;1.63;;;;;;;9.91;100.00;95882.38;5021706;28;20049;-59
2023/04/12 10:12:45;;;;;;;3.53;1.55;;;;;;;10.02;100.00;95881.16;5030129;28;20088;-61
2023/04/12 10:15:14;;;;;;;5.90;1.83;;;;;;;10.25;100.00;95895.81;5031034;28;20451;-60
2023/04/12 10:17:46;;;;;;;5.00;1.92;;;;;;;10.33;100.00;95883.56;5020807;28;20045;-67
2023/04/12 10:20:14;;;;;;;3.53;1.60;;;;;;;10.51;100.00;95892.84;5026063;28;20152;-62
2023/04/12 10:22:42;;;;;;;3.85;1.92;;;;;;;10.52;100.00;95888.25;5025589;28;20049;-59
2023/04/12 10:25:11;;;;;;;3.38;1.92;;;;;;;10.45;100.00;95885.09;5028494;28;20084;-64
2023/04/12 10:27:40;;;;;;;4.57;1.60;;;;;;;10.44;100.00;95876.19;5028804;28;20048;-62
2023/04/12 10:30:19;;;;;;;4.63;1.30;;;;;;;10.36;100.00;95876.78;5019297;28;20061;-61
2023/04/12 10:32:46;;;;;;;4.60;1.58;;;;;;;10.74;100.00;95873.38;5027471;28;20447;-63
2023/04/12 10:35:12;;;;;;;4.00;1.33;;;;;;;10.71;100.00;95873.97;5023405;28;20049;-64
2023/04/12 10:37:59;;;;;;;3.75;1.52;;;;;;;11.08;100.00;95885.94;5028369;28;20049;-61
2023/04/12 10:40:26;;;;;;;4.05;1.48;;;;;;;10.92;100.00;95871.81;5022829;28;20061;-61
2023/04/12 10:43:17;;;;;;;2.95;1.30;;;;;;;10.93;100.00;95870.72;5025229;28;20038;-60
2023/04/12 10:45:44;;;;;;;4.07;1.37;;;;;;;10.86;100.00;95867.53;5031160;28;20083;-62
2023/04/12 10:48:33;;;;;;;3.15;1.30;;;;;;;10.81;100.00;95854.91;5022547;28;20343;-61
2023/04/12 10:51:24;;;;;;;3.25;1.13;;;;;;;10.92;100.00;95852.84;5024642;28;20037;-61
2023/04/12 10:53:52;;;;;;;2.13;1.00;;;;;;;11.16;100.00;95863.63;5025266;28;20036;-60
2023/04/12 10:56:28;;;;;;;2.90;1.10;;;;;;;11.16;100.00;95857.38;5027560;28;20042;-63
2023/04/12 10:59:02;;;;;;;2.88;1.20;;;;;;;11.29;100.00;95851.25;5030450;28;20644;-61
2023/04/12 11:01:36;;;;;;;5.38;1.35;;;;;;;11.45;100.00;95842.88;5026524;28;20053;-61
2023/04/12 11:04:18;;;;;;;3.35;1.38;;;;;;;11.49;100.00;95834.94;5025092;28;20037;-61
2023/04/12 11:07:10;;;;;;;3.15;1.05;;;;;;;11.17;100.00;95842.75;5024414;28;20050;-63
2023/04/12 11:10:00;;;;;;;4.35;2.38;;;;;;;11.36;98.73;95836.53;5031474;28;20055;-58
2023/04/12 11:12:31;;;;;;;2.88;1.02;;;;;;;11.31;99.12;95837.38;5018228;28;20137;-61
2023/04/12 11:15:03;;;;;;;2.42;1.00;;;;;;;11.23;100.00;95838.88;5026807;28;20640;-61
2023/04/12 11:17:39;;;;;;;3.95;1.38;;;;;;;11.02;99.15;95836.44;5026774;28;20045;-61
2023/04/12 11:20:11;;;;;;;4.00;1.48;;;;;;;11.06;100.00;95833.97;5027633;28;20088;-61
2023/04/12 11:22:39;;;;;;;3.13;1.05;;;;;;;11.19;97.42;95837.84;5023899;28;20045;-61
2023/04/12 11:25:07;;;;;;;1.58;0.90;;;;;;;11.36;98.09;95831.91;5023367;28;20049;-61
2023/04/12 11:27:36;;;;;;;3.15;1.15;;;;;;;11.39;97.59;95820.47;5028693;28;20106;-61
2023/04/12 11:30:03;;;;;;;2.38;1.10;;;;;;;11.70;97.81;95817.25;5026412;28;20130;-61
2023/04/12 11:32:34;;;;;;;3.38;1.10;;;;;;;11.92;97.02;95812.28;5021782;28;20107;-60
2023/04/12 11:35:01;;;;;;;2.70;1.13;;;;;;;12.16;94.05;95816.75;5020590;28;20046;-60
2023/04/12 11:37:30;;;;;;;4.53;1.08;;;;;;;12.24;96.30;95821.50;5021424;28;20077;-61
2023/04/12 11:39:58;;;;;;;1.98;0.80;;;;;;;12.02;93.01;95812.06;5017688;28;20046;-63
2023/04/12 11:42:27;;;;;;;2.35;1.10;;;;;;;12.19;95.09;95808.00;5021571;28;20041;-63
2023/04/12 11:44:55;;;;;;;1.95;0.90;;;;;;;12.15;93.53;95815.13;5024078;28;20123;-64
2023/04/12 11:47:26;;;;;;;2.45;1.00;;;;;;;11.88;90.49;95809.38;5023476;28;20428;-61